createdAt,value
2022-10-19T00:04:21.675Z,11.50
2022-10-19T00:09:16.840Z,11.50
2022-10-19T00:14:14.380Z,11.40
2022-10-19T00:19:18.986Z,11.30
2022-10-19T00:24:11.910Z,11.20
2022-10-19T00:29:05.925Z,11.10
2022-10-19T00:33:58.979Z,11.10
2022-10-19T00:38:52.796Z,11.00
2022-10-19T00:44:19.163Z,10.90
2022-10-19T00:49:16.548Z,10.80
2022-10-19T00:54:10.437Z,10.80
2022-10-19T00:59:06.196Z,10.80
2022-10-19T01:03:58.996Z,10.80
2022-10-19T01:08:51.463Z,10.80
2022-10-19T01:14:15.220Z,10.70
2022-10-19T01:19:20.520Z,10.60
2022-10-19T01:24:39.888Z,10.60
2022-10-19T01:29:55.215Z,10.50
2022-10-19T01:35:06.517Z,10.40
2022-10-19T01:46:03.481Z,10.20
2022-10-19T01:51:06.648Z,10.20
2022-10-19T01:56:01.301Z,10.20
2022-10-19T02:00:56.065Z,10.40
2022-10-19T02:05:51.607Z,10.50
2022-10-19T02:10:46.058Z,10.70
2022-10-19T02:16:11.119Z,10.60
2022-10-19T02:21:05.701Z,10.40
2022-10-19T02:25:59.775Z,10.20
2022-10-19T02:30:53.095Z,10.20
2022-10-19T02:35:47.552Z,10.30
2022-10-19T02:40:45.392Z,10.40
2022-10-19T02:45:46.721Z,10.50
2022-10-19T02:50:43.937Z,10.60
2022-10-19T02:55:36.421Z,10.60
2022-10-19T03:00:28.910Z,10.60
2022-10-19T03:05:21.489Z,10.70
2022-10-19T03:10:13.945Z,10.70
2022-10-19T03:15:08.232Z,10.80
2022-10-19T03:20:00.651Z,10.90
2022-10-19T03:24:53.161Z,10.80
2022-10-19T03:29:45.611Z,10.70
2022-10-19T03:34:38.015Z,10.60
2022-10-19T03:39:30.791Z,10.60
2022-10-19T03:44:23.867Z,10.60
2022-10-19T03:49:16.612Z,10.60
2022-10-19T03:54:13.770Z,10.70
2022-10-19T03:59:06.772Z,10.90
2022-10-19T04:04:05.812Z,11.00
2022-10-19T04:08:58.520Z,11.00
2022-10-19T04:13:52.466Z,11.00
2022-10-19T04:18:44.962Z,10.90
2022-10-19T04:23:39.349Z,10.90
2022-10-19T04:28:32.694Z,10.90
2022-10-19T04:33:25.214Z,11.00
2022-10-19T04:38:17.463Z,10.90
2022-10-19T04:43:10.042Z,11.00
2022-10-19T04:48:02.697Z,11.00
2022-10-19T04:52:55.877Z,11.10
2022-10-19T04:57:48.481Z,11.00
2022-10-19T05:02:47.307Z,11.00
2022-10-19T05:07:39.832Z,11.00
2022-10-19T05:12:32.293Z,11.00
2022-10-19T05:17:24.832Z,11.00
2022-10-19T05:22:17.431Z,11.00
2022-10-19T05:27:10.053Z,10.90
2022-10-19T05:32:02.739Z,10.90
2022-10-19T05:43:00.909Z,10.90
2022-10-19T05:53:34.084Z,11.00
2022-10-19T05:58:27.019Z,11.00
2022-10-19T06:03:20.483Z,11.00
2022-10-19T06:08:13.017Z,11.10
2022-10-19T06:13:05.484Z,11.20
2022-10-19T06:17:58.546Z,11.30
2022-10-19T06:22:51.141Z,11.40
2022-10-19T06:28:08.243Z,11.50
2022-10-19T06:34:00.296Z,11.60
2022-10-19T06:38:53.562Z,11.90
2022-10-19T06:43:53.506Z,12.10
2022-10-19T06:48:51.889Z,12.20
2022-10-19T06:53:44.952Z,12.30
2022-10-19T07:03:46.999Z,12.40
2022-10-19T07:08:41.743Z,12.60
2022-10-19T07:13:34.930Z,12.80
2022-10-19T07:18:28.922Z,13.00
2022-10-19T07:23:21.452Z,13.30
2022-10-19T07:28:14.023Z,13.50
2022-10-19T07:33:07.155Z,13.60
2022-10-19T07:38:00.420Z,13.60
2022-10-19T07:42:53.169Z,13.50
2022-10-19T07:47:45.787Z,13.50
2022-10-19T07:52:38.578Z,13.50
2022-10-19T07:57:31.319Z,13.30
2022-10-19T08:02:30.763Z,13.40
2022-10-19T08:07:34.358Z,13.40
2022-10-19T08:12:27.972Z,13.60
2022-10-19T08:17:22.597Z,13.80
2022-10-19T08:22:17.104Z,13.90
2022-10-19T08:27:09.571Z,14.20
2022-10-19T08:32:01.962Z,14.40
2022-10-19T08:36:54.478Z,14.60
2022-10-19T08:42:13.392Z,15.00
2022-10-19T08:47:48.052Z,15.60
2022-10-19T08:52:45.797Z,15.90
2022-10-19T09:03:37.667Z,15.60
2022-10-19T09:08:40.672Z,16.00
2022-10-19T09:13:46.979Z,16.50
2022-10-19T09:30:04.571Z,17.80
2022-10-19T09:35:24.050Z,17.80
2022-10-19T09:40:30.969Z,17.70
2022-10-19T09:45:32.236Z,18.20
2022-10-19T09:50:31.472Z,17.90
2022-10-19T09:55:38.964Z,17.10
2022-10-19T10:00:39.871Z,17.70
2022-10-19T10:05:40.706Z,18.90
2022-10-19T10:10:49.715Z,18.30
2022-10-19T10:15:48.469Z,17.80
2022-10-19T10:21:01.662Z,17.20
2022-10-19T10:31:53.871Z,17.40
2022-10-19T10:36:52.088Z,16.70
2022-10-19T10:47:14.312Z,16.60
2022-10-19T10:52:20.761Z,16.40
2022-10-19T11:08:25.570Z,16.90
2022-10-19T11:13:43.128Z,16.80
2022-10-19T11:18:46.671Z,16.10
2022-10-19T11:24:01.070Z,15.70
2022-10-19T11:29:08.636Z,15.40
2022-10-19T11:34:32.087Z,15.80
2022-10-19T11:39:53.543Z,16.10
2022-10-19T11:44:54.534Z,16.10
2022-10-19T11:50:13.778Z,15.90
2022-10-19T11:55:28.503Z,15.70
2022-10-19T12:00:38.154Z,15.70
2022-10-19T12:05:53.911Z,16.00
2022-10-19T12:11:19.206Z,15.80
2022-10-19T12:16:13.627Z,15.90
2022-10-19T12:21:23.509Z,15.80
2022-10-19T12:26:22.005Z,15.80
2022-10-19T12:31:15.244Z,15.80
2022-10-19T12:36:36.345Z,15.50
2022-10-19T12:41:53.481Z,15.70
2022-10-19T12:46:52.984Z,15.80
2022-10-19T12:51:47.784Z,15.90
2022-10-19T12:56:52.055Z,15.90
2022-10-19T13:01:45.556Z,15.90
2022-10-19T13:06:43.037Z,15.80
2022-10-19T13:12:01.282Z,15.60
2022-10-19T13:17:04.459Z,15.50
2022-10-19T13:22:23.265Z,15.30
2022-10-19T13:27:26.432Z,15.40
2022-10-19T13:37:34.903Z,15.60
2022-10-19T13:42:29.399Z,15.60
2022-10-19T13:47:33.998Z,15.60
2022-10-19T13:52:59.051Z,15.50
2022-10-19T13:58:26.339Z,15.50
2022-10-19T14:03:43.809Z,15.60
2022-10-19T14:09:26.439Z,15.50
2022-10-19T14:14:22.498Z,15.60
2022-10-19T14:19:27.465Z,15.60
2022-10-19T14:24:30.682Z,15.60
2022-10-19T14:29:23.618Z,15.60
2022-10-19T14:34:16.879Z,15.40
2022-10-19T14:39:30.116Z,15.30
2022-10-19T14:44:38.797Z,15.20
2022-10-19T14:49:31.941Z,15.20
2022-10-19T14:54:42.222Z,14.90
2022-10-19T15:00:02.629Z,14.70
2022-10-19T15:05:00.770Z,14.60
2022-10-19T15:10:01.373Z,14.50
2022-10-19T15:14:55.880Z,14.40
2022-10-19T15:19:51.154Z,14.20
2022-10-19T15:24:58.208Z,14.10
2022-10-19T15:30:23.490Z,13.90
2022-10-19T15:35:32.779Z,13.80
2022-10-19T15:45:39.316Z,13.70
2022-10-19T15:50:37.608Z,13.50
2022-10-19T15:55:30.631Z,13.40
2022-10-19T16:00:23.316Z,13.30
2022-10-19T16:05:18.970Z,13.20
2022-10-19T16:10:45.583Z,13.10
2022-10-19T16:15:43.721Z,12.90
2022-10-19T16:20:42.191Z,12.80
2022-10-19T16:26:39.463Z,12.80
2022-10-19T16:31:34.001Z,12.70
2022-10-19T16:36:26.928Z,12.60
2022-10-19T16:41:19.826Z,12.50
2022-10-19T16:46:12.871Z,12.40
2022-10-19T16:51:16.054Z,12.40
2022-10-19T16:56:23.220Z,12.30
2022-10-19T17:01:25.239Z,12.20
2022-10-19T17:06:19.657Z,12.00
2022-10-19T17:11:28.578Z,11.80
2022-10-19T17:16:24.056Z,11.60
2022-10-19T17:21:23.840Z,11.40
2022-10-19T17:26:20.109Z,11.10
2022-10-19T17:31:17.574Z,10.90
2022-10-19T17:36:19.980Z,10.70
2022-10-19T17:41:22.060Z,10.50
2022-10-19T17:46:20.464Z,10.30
2022-10-19T17:51:31.572Z,10.00
2022-10-19T17:56:27.027Z,9.90
2022-10-19T18:06:31.956Z,9.80
2022-10-19T18:11:36.036Z,9.50
2022-10-19T18:16:38.983Z,9.30
2022-10-19T18:22:46.981Z,9.10
2022-10-19T18:27:40.892Z,9.10
2022-10-19T18:32:34.378Z,8.90
2022-10-19T18:37:28.810Z,8.90
2022-10-19T18:42:23.924Z,8.80
2022-10-19T18:47:17.255Z,8.60
2022-10-19T18:52:17.331Z,8.50
2022-10-19T18:57:11.495Z,8.30
2022-10-19T19:02:07.852Z,8.20
2022-10-19T19:07:06.012Z,8.20
2022-10-19T19:12:01.350Z,8.20
2022-10-19T19:16:54.473Z,8.10
2022-10-19T19:21:51.531Z,7.90
2022-10-19T19:26:51.107Z,7.70
2022-10-19T19:31:52.199Z,7.60
2022-10-19T19:36:50.512Z,7.50
2022-10-19T19:41:49.082Z,7.40
2022-10-19T19:46:43.316Z,7.40
2022-10-19T19:51:36.133Z,7.30
2022-10-19T19:56:33.299Z,7.50
2022-10-19T20:01:33.101Z,7.30
2022-10-19T20:06:27.450Z,7.30
2022-10-19T20:11:21.423Z,7.20
2022-10-19T20:16:22.667Z,7.10
2022-10-19T20:21:23.992Z,7.00
2022-10-19T20:26:25.955Z,7.00
2022-10-19T20:31:18.912Z,6.90
2022-10-19T20:36:23.994Z,6.90
2022-10-19T20:41:18.558Z,6.90
2022-10-19T20:46:24.258Z,6.70
2022-10-19T20:51:31.931Z,6.60
2022-10-19T20:56:28.169Z,6.60
2022-10-19T21:01:23.999Z,6.60
2022-10-19T21:12:49.956Z,6.50
2022-10-19T22:50:33.934Z,5.50
2022-10-19T22:55:39.854Z,5.60
2022-10-19T23:11:22.857Z,5.60
2022-10-19T23:16:17.070Z,5.60
2022-10-19T23:21:15.834Z,5.70
2022-10-19T23:26:18.847Z,5.60
2022-10-19T23:31:27.140Z,5.60
2022-10-19T23:36:35.659Z,5.50
2022-10-19T23:42:01.097Z,5.60
2022-10-19T23:47:03.889Z,5.50
2022-10-19T23:57:42.361Z,5.40
